createdAt,value
2018-05-01T00:00:55.425Z,100.0
2018-05-01T00:01:57.287Z,100.0
2018-05-01T00:02:59.207Z,100.0
2018-05-01T00:04:01.020Z,100.0
2018-05-01T00:05:02.826Z,100.0
2018-05-01T00:06:04.429Z,100.0
2018-05-01T00:07:06.038Z,100.0
2018-05-01T00:08:07.650Z,100.0
2018-05-01T00:09:09.254Z,100.0
2018-05-01T00:10:10.857Z,100.0
2018-05-01T00:11:12.470Z,100.0
2018-05-01T00:12:14.072Z,100.0
2018-05-01T00:13:15.684Z,100.0
2018-05-01T00:14:17.289Z,100.0
2018-05-01T00:15:18.895Z,100.0
2018-05-01T00:16:20.495Z,100.0
2018-05-01T00:17:22.105Z,100.0
2018-05-01T00:18:23.710Z,100.0
2018-05-01T00:19:25.324Z,100.0
2018-05-01T00:20:26.921Z,100.0
2018-05-01T00:21:28.530Z,100.0
2018-05-01T00:22:30.145Z,100.0
2018-05-01T00:23:31.749Z,100.0
2018-05-01T00:24:33.359Z,100.0
2018-05-01T00:25:34.961Z,100.0
2018-05-01T00:26:36.571Z,100.0
2018-05-01T00:27:38.174Z,100.0
2018-05-01T00:28:39.789Z,100.0
2018-05-01T00:29:41.394Z,100.0
2018-05-01T00:30:43.001Z,100.0
2018-05-01T00:31:44.611Z,100.0
2018-05-01T00:32:46.209Z,100.0
2018-05-01T00:33:47.819Z,100.0
2018-05-01T00:34:49.430Z,100.0
2018-05-01T00:35:51.034Z,100.0
2018-05-01T00:36:52.645Z,100.0
2018-05-01T00:37:54.253Z,100.0
2018-05-01T00:38:55.856Z,100.0
2018-05-01T00:39:57.467Z,100.0
2018-05-01T00:40:59.072Z,100.0
2018-05-01T00:42:00.685Z,100.0
2018-05-01T00:43:02.289Z,100.0
2018-05-01T00:44:03.900Z,100.0
2018-05-01T00:45:05.498Z,100.0
2018-05-01T00:46:07.106Z,100.0
2018-05-01T00:47:08.710Z,100.0
2018-05-01T00:48:10.313Z,100.0
2018-05-01T00:49:11.931Z,100.0
2018-05-01T00:50:13.530Z,100.0
2018-05-01T00:51:15.139Z,100.0
2018-05-01T00:52:16.745Z,100.0
2018-05-01T00:53:18.346Z,100.0
2018-05-01T00:54:19.952Z,100.0
2018-05-01T00:55:21.560Z,100.0
2018-05-01T00:56:23.164Z,100.0
2018-05-01T00:57:24.775Z,100.0
2018-05-01T00:58:26.383Z,100.0
2018-05-01T00:59:27.989Z,100.0
2018-05-01T01:00:29.599Z,100.0
2018-05-01T01:01:31.204Z,100.0
2018-05-01T01:02:32.817Z,100.0
2018-05-01T01:03:34.497Z,100.0
2018-05-01T01:04:36.033Z,100.0
2018-05-01T01:05:37.642Z,100.0
2018-05-01T01:06:39.244Z,100.0
2018-05-01T01:07:40.854Z,100.0
2018-05-01T01:08:42.461Z,100.0
2018-05-01T01:09:44.065Z,100.0
2018-05-01T01:10:45.673Z,100.0
2018-05-01T01:11:47.281Z,100.0
2018-05-01T01:12:48.888Z,100.0
2018-05-01T01:13:50.498Z,100.0
2018-05-01T01:14:52.102Z,100.0
2018-05-01T01:15:53.706Z,100.0
2018-05-01T01:16:55.315Z,100.0
2018-05-01T01:17:56.919Z,100.0
2018-05-01T01:18:58.529Z,100.0
2018-05-01T01:20:00.136Z,100.0
2018-05-01T01:21:01.736Z,100.0
2018-05-01T01:22:03.346Z,100.0
2018-05-01T01:23:04.955Z,100.0
2018-05-01T01:24:06.558Z,100.0
2018-05-01T01:25:08.170Z,100.0
2018-05-01T01:26:09.773Z,100.0
2018-05-01T01:27:11.383Z,100.0
2018-05-01T01:28:12.988Z,100.0
2018-05-01T01:29:14.591Z,100.0
2018-05-01T01:30:16.204Z,100.0
2018-05-01T01:31:17.806Z,100.0
2018-05-01T01:32:19.419Z,100.0
2018-05-01T01:33:21.028Z,100.0
2018-05-01T01:34:22.632Z,100.0
2018-05-01T01:35:24.236Z,100.0
2018-05-01T01:36:25.845Z,100.0
2018-05-01T01:37:27.452Z,100.0
2018-05-01T01:38:29.056Z,100.0
2018-05-01T01:39:30.661Z,100.0
2018-05-01T01:40:32.269Z,100.0
2018-05-01T01:41:33.877Z,100.0
2018-05-01T01:42:35.486Z,100.0
2018-05-01T01:43:37.092Z,100.0
2018-05-01T01:44:38.695Z,100.0
2018-05-01T01:45:40.307Z,100.0
2018-05-01T01:46:41.915Z,100.0
2018-05-01T01:47:43.522Z,100.0
2018-05-01T01:48:45.133Z,100.0
2018-05-01T01:49:46.733Z,100.0
2018-05-01T01:50:48.347Z,100.0
2018-05-01T01:51:49.944Z,100.0
2018-05-01T01:52:51.554Z,100.0
2018-05-01T01:53:53.156Z,100.0
2018-05-01T01:54:54.771Z,100.0
2018-05-01T01:55:56.378Z,100.0
2018-05-01T01:56:57.977Z,100.0
2018-05-01T01:57:59.589Z,100.0
2018-05-01T01:59:01.191Z,100.0
2018-05-01T02:00:02.801Z,100.0
2018-05-01T02:01:04.408Z,100.0
2018-05-01T02:02:06.013Z,100.0
2018-05-01T02:03:07.619Z,100.0
2018-05-01T02:04:09.225Z,100.0
2018-05-01T02:05:10.830Z,100.0
2018-05-01T02:06:12.440Z,100.0
2018-05-01T02:07:14.047Z,100.0
2018-05-01T02:08:15.658Z,100.0
2018-05-01T02:09:17.263Z,100.0
2018-05-01T02:10:18.878Z,100.0
2018-05-01T02:11:20.481Z,100.0
2018-05-01T02:12:22.090Z,100.0
2018-05-01T02:13:23.697Z,100.0
2018-05-01T02:14:25.309Z,100.0
2018-05-01T02:15:26.918Z,100.0
2018-05-01T02:16:28.516Z,100.0
2018-05-01T02:17:30.130Z,100.0
2018-05-01T02:18:31.734Z,100.0
2018-05-01T02:19:33.335Z,100.0
2018-05-01T02:20:34.940Z,100.0
2018-05-01T02:21:36.549Z,100.0
2018-05-01T02:22:38.161Z,100.0
2018-05-01T02:23:39.764Z,100.0
2018-05-01T02:24:41.369Z,100.0
2018-05-01T02:25:42.980Z,100.0
2018-05-01T02:26:44.588Z,100.0
2018-05-01T02:27:46.194Z,100.0
2018-05-01T02:28:47.796Z,100.0
2018-05-01T02:29:49.404Z,100.0
2018-05-01T02:30:51.015Z,100.0
2018-05-01T02:31:52.626Z,100.0
2018-05-01T02:32:54.234Z,100.0
2018-05-01T02:33:55.837Z,100.0
2018-05-01T02:34:57.446Z,100.0
2018-05-01T02:35:59.049Z,100.0
2018-05-01T02:37:00.651Z,100.0
2018-05-01T02:38:02.261Z,100.0
2018-05-01T02:39:03.871Z,100.0
2018-05-01T02:40:05.472Z,100.0
2018-05-01T02:41:07.077Z,100.0
2018-05-01T02:42:08.690Z,100.0
2018-05-01T02:43:10.299Z,100.0
2018-05-01T02:44:11.902Z,100.0
2018-05-01T02:45:13.519Z,100.0
2018-05-01T02:46:15.124Z,100.0
2018-05-01T02:47:16.725Z,100.0
2018-05-01T02:48:18.336Z,100.0
2018-05-01T02:49:19.938Z,100.0
2018-05-01T02:50:21.545Z,100.0
2018-05-01T02:51:23.195Z,100.0
2018-05-01T02:52:24.764Z,100.0
2018-05-01T02:53:26.383Z,100.0
2018-05-01T02:54:27.979Z,100.0
2018-05-01T02:55:29.584Z,100.0
2018-05-01T02:56:31.194Z,100.0
2018-05-01T02:57:32.795Z,100.0
2018-05-01T02:58:34.407Z,100.0
2018-05-01T02:59:36.790Z,100.0
2018-05-01T03:00:38.400Z,100.0
2018-05-01T03:01:40.010Z,100.0
2018-05-01T03:02:41.620Z,100.0
2018-05-01T03:03:43.223Z,100.0
2018-05-01T03:04:44.831Z,100.0
2018-05-01T03:05:46.435Z,100.0
2018-05-01T03:06:48.048Z,100.0
2018-05-01T03:07:49.659Z,100.0
2018-05-01T03:08:51.267Z,100.0
2018-05-01T03:09:52.937Z,100.0
2018-05-01T03:10:54.478Z,100.0
2018-05-01T03:11:56.088Z,100.0
2018-05-01T03:12:57.692Z,100.0
2018-05-01T03:13:59.307Z,100.0
2018-05-01T03:15:00.911Z,100.0
2018-05-01T03:16:02.519Z,100.0
2018-05-01T03:17:04.121Z,100.0
2018-05-01T03:18:05.735Z,100.0
2018-05-01T03:19:07.328Z,100.0
2018-05-01T03:20:08.940Z,100.0
2018-05-01T03:21:10.549Z,100.0
2018-05-01T03:22:12.159Z,100.0
2018-05-01T03:23:13.767Z,100.0
2018-05-01T03:24:15.375Z,100.0
2018-05-01T03:25:17.017Z,100.0
2018-05-01T03:26:18.586Z,100.0
2018-05-01T03:27:20.194Z,100.0
2018-05-01T03:28:21.804Z,100.0
2018-05-01T03:29:23.407Z,100.0
2018-05-01T03:30:25.013Z,100.0
2018-05-01T03:31:26.616Z,100.0
2018-05-01T03:32:28.225Z,100.0
2018-05-01T03:33:29.828Z,100.0
2018-05-01T03:34:31.438Z,100.0
2018-05-01T03:35:33.046Z,100.0
2018-05-01T03:36:34.647Z,100.0
2018-05-01T03:37:36.251Z,100.0
2018-05-01T03:38:37.861Z,100.0
2018-05-01T03:39:39.466Z,100.0
2018-05-01T03:40:41.071Z,100.0
2018-05-01T03:41:42.681Z,100.0
2018-05-01T03:42:44.284Z,100.0
2018-05-01T03:43:45.898Z,100.0
2018-05-01T03:44:47.504Z,100.0
2018-05-01T03:45:49.108Z,100.0
2018-05-01T03:46:50.720Z,100.0
2018-05-01T03:47:52.323Z,100.0
2018-05-01T03:48:53.927Z,100.0
2018-05-01T03:49:55.538Z,100.0
2018-05-01T03:50:57.142Z,100.0
2018-05-01T03:51:58.746Z,100.0
2018-05-01T03:53:00.360Z,100.0
2018-05-01T03:54:01.960Z,100.0
2018-05-01T03:55:03.565Z,100.0
2018-05-01T03:56:05.264Z,100.0
2018-05-01T03:57:06.783Z,100.0
2018-05-01T03:58:08.388Z,100.0
2018-05-01T03:59:10.000Z,100.0
2018-05-01T04:00:11.605Z,100.0
2018-05-01T04:01:13.218Z,100.0
2018-05-01T04:02:14.831Z,100.0
2018-05-01T04:03:16.426Z,100.0
2018-05-01T04:04:18.040Z,100.0
2018-05-01T04:05:19.647Z,100.0
2018-05-01T04:06:21.259Z,100.0
2018-05-01T04:07:22.865Z,100.0
2018-05-01T04:08:24.470Z,100.0
2018-05-01T04:09:26.085Z,100.0
2018-05-01T04:10:27.692Z,100.0
2018-05-01T04:11:29.300Z,100.0
2018-05-01T04:12:30.906Z,100.0
2018-05-01T04:13:32.512Z,100.0
2018-05-01T04:14:34.116Z,100.0
2018-05-01T04:15:35.720Z,100.0
2018-05-01T04:16:37.334Z,100.0
2018-05-01T04:17:38.947Z,100.0
2018-05-01T04:18:40.555Z,100.0
2018-05-01T04:19:42.163Z,100.0
2018-05-01T04:20:43.777Z,100.0
2018-05-01T04:21:45.390Z,100.0
2018-05-01T04:22:46.994Z,100.0
2018-05-01T04:23:48.602Z,100.0
2018-05-01T04:24:50.216Z,100.0
2018-05-01T04:25:51.831Z,100.0
2018-05-01T04:26:53.436Z,100.0
2018-05-01T04:27:55.041Z,100.0
2018-05-01T04:28:56.655Z,100.0
2018-05-01T04:29:58.265Z,100.0
2018-05-01T04:30:59.872Z,100.0
2018-05-01T04:32:01.487Z,100.0
2018-05-01T04:33:03.102Z,100.0
2018-05-01T04:34:05.549Z,100.0
2018-05-01T04:35:07.154Z,100.0
2018-05-01T04:36:08.762Z,100.0
2018-05-01T04:37:10.375Z,100.0
2018-05-01T04:38:11.990Z,100.0
2018-05-01T04:39:13.591Z,100.0
2018-05-01T04:40:15.205Z,100.0
2018-05-01T04:41:16.823Z,100.0
2018-05-01T04:42:18.433Z,100.0
2018-05-01T04:43:20.041Z,100.0
2018-05-01T04:44:21.649Z,100.0
2018-05-01T04:45:23.262Z,100.0
2018-05-01T04:46:24.875Z,100.0
2018-05-01T04:47:26.490Z,100.0
2018-05-01T04:48:28.091Z,100.0
2018-05-01T04:49:29.703Z,100.0
2018-05-01T04:50:31.314Z,100.0
2018-05-01T04:51:32.923Z,100.0
2018-05-01T04:52:34.538Z,100.0
2018-05-01T04:53:36.142Z,100.0
2018-05-01T04:54:37.752Z,100.0
2018-05-01T04:55:39.365Z,100.0
2018-05-01T04:56:40.973Z,100.0
2018-05-01T04:57:42.583Z,100.0
2018-05-01T04:58:44.198Z,100.0
2018-05-01T04:59:45.802Z,100.0
2018-05-01T05:00:47.413Z,100.0
2018-05-01T05:01:49.029Z,100.0
2018-05-01T05:02:50.636Z,100.0
2018-05-01T05:03:52.242Z,100.0
2018-05-01T05:04:53.858Z,100.0
2018-05-01T05:05:55.461Z,100.0
2018-05-01T05:06:57.078Z,100.0
2018-05-01T05:07:58.682Z,100.0
2018-05-01T05:09:00.291Z,100.0
2018-05-01T05:10:01.912Z,100.0
2018-05-01T05:11:03.516Z,100.0
2018-05-01T05:12:05.129Z,100.0
2018-05-01T05:13:06.737Z,100.0
2018-05-01T05:14:08.358Z,100.0
2018-05-01T05:15:09.960Z,100.0
2018-05-01T05:16:11.575Z,100.0
2018-05-01T05:17:13.183Z,100.0
2018-05-01T05:18:14.796Z,100.0
2018-05-01T05:19:16.410Z,100.0
2018-05-01T05:20:18.022Z,100.0
2018-05-01T05:21:19.630Z,100.0
2018-05-01T05:22:21.244Z,100.0
2018-05-01T05:23:22.861Z,100.0
2018-05-01T05:24:24.471Z,100.0
2018-05-01T05:25:26.081Z,100.0
2018-05-01T05:26:27.697Z,100.0
2018-05-01T05:27:29.308Z,100.0
2018-05-01T05:28:30.915Z,100.0
2018-05-01T05:29:32.532Z,100.0
2018-05-01T05:30:34.142Z,100.0
2018-05-01T05:31:35.760Z,100.0
2018-05-01T05:32:37.369Z,100.0
2018-05-01T05:33:38.980Z,100.0
2018-05-01T05:34:40.589Z,100.0
2018-05-01T05:35:42.206Z,100.0
2018-05-01T05:36:43.815Z,100.0
2018-05-01T05:37:45.428Z,100.0
2018-05-01T05:38:47.048Z,100.0
2018-05-01T05:39:48.662Z,100.0
2018-05-01T05:40:50.267Z,100.0
2018-05-01T05:41:51.879Z,100.0
2018-05-01T05:42:53.496Z,100.0
2018-05-01T05:43:55.110Z,100.0
2018-05-01T05:44:56.724Z,100.0
2018-05-01T05:45:58.339Z,100.0
2018-05-01T05:46:59.949Z,100.0
2018-05-01T05:48:01.557Z,100.0
2018-05-01T05:49:03.189Z,100.0
2018-05-01T05:50:04.806Z,100.0
2018-05-01T05:51:06.415Z,100.0
2018-05-01T05:52:08.029Z,100.0
2018-05-01T05:53:09.648Z,100.0
2018-05-01T05:54:11.255Z,100.0
2018-05-01T05:55:12.862Z,100.0
2018-05-01T05:56:14.472Z,100.0
2018-05-01T05:57:16.092Z,100.0
2018-05-01T05:58:17.712Z,100.0
2018-05-01T05:59:19.317Z,100.0
2018-05-01T06:00:20.931Z,100.0
2018-05-01T06:01:22.543Z,100.0
2018-05-01T06:02:24.158Z,100.0
2018-05-01T06:03:25.773Z,100.0
2018-05-01T06:04:27.378Z,100.0
2018-05-01T06:05:28.995Z,100.0
2018-05-01T06:06:30.609Z,100.0
2018-05-01T06:07:32.221Z,100.0
2018-05-01T06:08:33.829Z,100.0
2018-05-01T06:09:35.448Z,100.0
2018-05-01T06:10:37.058Z,100.0
2018-05-01T06:11:38.674Z,100.0
2018-05-01T06:12:40.286Z,100.0
2018-05-01T06:13:41.940Z,100.0
2018-05-01T06:14:43.509Z,100.0
2018-05-01T06:15:45.127Z,100.0
2018-05-01T06:16:46.734Z,100.0
2018-05-01T06:17:48.351Z,100.0
2018-05-01T06:18:49.959Z,100.0
2018-05-01T06:19:51.580Z,100.0
2018-05-01T06:20:53.193Z,100.0
2018-05-01T06:21:54.862Z,100.0
2018-05-01T06:22:56.416Z,100.0
2018-05-01T06:23:58.032Z,100.0
2018-05-01T06:24:59.643Z,100.0
2018-05-01T06:26:01.259Z,100.0
2018-05-01T06:27:02.875Z,100.0
2018-05-01T06:28:04.488Z,100.0
2018-05-01T06:29:06.100Z,100.0
2018-05-01T06:30:07.717Z,99.4
2018-05-01T06:31:09.394Z,98.4
2018-05-01T06:32:10.938Z,98.6
2018-05-01T06:33:12.554Z,99.6
2018-05-01T06:34:14.168Z,99.5
2018-05-01T06:35:15.785Z,99.1
2018-05-01T06:36:17.391Z,99.4
2018-05-01T06:37:19.014Z,99.7
2018-05-01T06:38:20.616Z,98.7
2018-05-01T06:39:22.224Z,98.7
2018-05-01T06:40:23.839Z,99.5
2018-05-01T06:41:25.453Z,98.5
2018-05-01T06:42:27.069Z,98.5
2018-05-01T06:43:28.688Z,99.0
2018-05-01T06:44:30.295Z,98.9
2018-05-01T06:45:31.905Z,99.0
2018-05-01T06:46:33.520Z,98.1
2018-05-01T06:47:35.130Z,98.4
2018-05-01T06:48:36.740Z,99.1
2018-05-01T06:49:38.351Z,99.1
2018-05-01T06:50:40.004Z,99.5
2018-05-01T06:51:41.581Z,99.3
2018-05-01T06:52:43.190Z,98.8
2018-05-01T06:53:44.801Z,98.0
2018-05-01T06:54:46.423Z,98.4
2018-05-01T06:55:48.032Z,97.8
2018-05-01T06:56:49.648Z,98.6
2018-05-01T06:57:51.282Z,98.2
2018-05-01T06:58:52.882Z,98.2
2018-05-01T06:59:54.497Z,98.9
2018-05-01T07:00:56.103Z,99.5
2018-05-01T07:01:57.721Z,99.6
2018-05-01T07:02:59.331Z,98.7
2018-05-01T07:04:00.947Z,98.8
2018-05-01T07:05:02.558Z,99.2
2018-05-01T07:06:04.177Z,99.1
2018-05-01T07:07:05.782Z,98.5
2018-05-01T07:08:07.398Z,98.7
2018-05-01T07:09:09.007Z,98.4
2018-05-01T07:10:10.708Z,98.6
2018-05-01T07:11:12.237Z,98.8
2018-05-01T07:12:13.851Z,98.9
2018-05-01T07:13:15.457Z,98.4
2018-05-01T07:14:17.074Z,98.4
2018-05-01T07:15:18.685Z,98.3
2018-05-01T07:16:20.304Z,97.8
2018-05-01T07:17:21.915Z,96.7
2018-05-01T07:18:23.543Z,97.8
2018-05-01T07:19:25.138Z,97.5
2018-05-01T07:20:26.754Z,97.7
2018-05-01T07:21:28.360Z,96.9
2018-05-01T07:22:29.977Z,96.8
2018-05-01T07:23:31.594Z,96.6
2018-05-01T07:24:33.204Z,95.9
2018-05-01T07:25:34.821Z,95.4
2018-05-01T07:26:36.432Z,94.6
2018-05-01T07:27:38.050Z,94.4
2018-05-01T07:28:39.663Z,94.4
2018-05-01T07:29:41.279Z,94.0
2018-05-01T07:30:42.893Z,93.2
2018-05-01T07:31:44.513Z,92.8
2018-05-01T07:32:46.131Z,92.2
2018-05-01T07:33:47.744Z,91.0
2018-05-01T07:34:49.355Z,91.2
2018-05-01T07:35:50.974Z,91.5
2018-05-01T07:36:52.591Z,91.5
2018-05-01T07:37:54.205Z,91.7
2018-05-01T07:38:55.819Z,91.6
2018-05-01T07:39:57.439Z,90.6
2018-05-01T07:40:59.060Z,90.9
2018-05-01T07:42:00.674Z,89.8
2018-05-01T07:43:02.291Z,86.5
2018-05-01T07:44:03.909Z,84.1
2018-05-01T07:45:05.528Z,81.7
2018-05-01T07:46:07.148Z,80.8
2018-05-01T07:47:08.766Z,80.3
2018-05-01T07:48:10.392Z,81.3
2018-05-01T07:49:12.094Z,81.7
2018-05-01T07:50:13.630Z,80.5
2018-05-01T07:51:15.251Z,79.1
2018-05-01T07:52:16.869Z,79.2
2018-05-01T07:53:18.487Z,79.6
2018-05-01T07:54:20.113Z,78.4
2018-05-01T07:55:21.736Z,76.1
2018-05-01T07:56:23.351Z,75.3
2018-05-01T07:57:24.974Z,74.7
2018-05-01T07:58:26.595Z,72.7
2018-05-01T07:59:28.214Z,71.8
2018-05-01T08:00:29.840Z,72.8
2018-05-01T08:01:31.464Z,72.6
2018-05-01T08:02:33.094Z,72.3
2018-05-01T08:03:34.707Z,72.1
2018-05-01T08:04:36.339Z,72.3
2018-05-01T08:05:37.953Z,72.1
2018-05-01T08:06:39.571Z,72.9
2018-05-01T08:07:41.197Z,73.4
2018-05-01T08:08:42.818Z,73.7
2018-05-01T08:09:44.451Z,73.1
2018-05-01T08:10:46.064Z,73.7
2018-05-01T08:11:47.693Z,73.8
2018-05-01T08:12:49.308Z,73.4
2018-05-01T08:13:50.932Z,72.2
2018-05-01T08:14:52.549Z,74.6
2018-05-01T08:15:54.172Z,74.7
2018-05-01T08:16:55.798Z,75.0
2018-05-01T08:17:57.414Z,74.1
2018-05-01T08:18:59.031Z,73.4
2018-05-01T08:20:00.654Z,73.6
2018-05-01T08:21:02.280Z,74.2
2018-05-01T08:22:03.906Z,74.4
2018-05-01T08:23:06.010Z,73.4
2018-05-01T08:24:07.607Z,72.1
2018-05-01T08:25:09.223Z,71.8
2018-05-01T08:26:10.846Z,69.8
2018-05-01T08:27:12.465Z,70.1
2018-05-01T08:28:14.095Z,69.7
2018-05-01T08:29:15.712Z,68.3
2018-05-01T08:30:17.335Z,66.9
2018-05-01T08:31:18.963Z,66.7
2018-05-01T08:32:20.574Z,65.7
2018-05-01T08:33:22.193Z,65.0
2018-05-01T08:34:23.818Z,65.3
2018-05-01T08:35:25.441Z,62.0
2018-05-01T08:36:27.071Z,61.7
2018-05-01T08:37:28.692Z,60.3
2018-05-01T08:38:30.320Z,61.0
2018-05-01T08:39:31.943Z,62.9
2018-05-01T08:40:33.564Z,61.9
2018-05-01T08:41:35.197Z,62.1
2018-05-01T08:42:36.816Z,61.3
2018-05-01T08:43:38.446Z,62.2
2018-05-01T08:44:40.076Z,63.2
2018-05-01T08:45:41.698Z,60.1
2018-05-01T08:46:44.149Z,60.2
2018-05-01T08:47:45.779Z,59.0
2018-05-01T08:48:47.412Z,59.5
2018-05-01T08:49:49.253Z,59.4
2018-05-01T08:50:50.982Z,60.4
2018-05-01T08:51:52.611Z,59.8
2018-05-01T08:52:54.263Z,58.8
2018-05-01T08:53:55.893Z,60.1
2018-05-01T08:54:57.637Z,59.8
2018-05-01T08:55:59.382Z,59.7
2018-05-01T08:57:01.003Z,60.0
2018-05-01T08:58:02.632Z,58.8
2018-05-01T08:59:04.255Z,59.6
2018-05-01T09:00:05.887Z,59.0
2018-05-01T09:01:07.758Z,60.5
2018-05-01T09:02:09.380Z,59.7
2018-05-01T09:03:11.004Z,58.7
2018-05-01T09:04:12.637Z,59.2
2018-05-01T09:05:14.259Z,59.5
2018-05-01T09:06:15.883Z,58.8
2018-05-01T09:07:17.517Z,58.0
2018-05-01T09:08:19.140Z,58.4
2018-05-01T09:09:20.782Z,60.9
2018-05-01T09:10:22.406Z,58.8
2018-05-01T09:11:24.033Z,58.7
2018-05-01T09:12:25.657Z,58.4
2018-05-01T09:13:27.285Z,56.6
2018-05-01T09:14:28.909Z,56.6
2018-05-01T09:15:30.540Z,57.1
2018-05-01T09:16:32.271Z,54.5
2018-05-01T09:17:33.913Z,53.1
2018-05-01T09:18:35.521Z,52.7
2018-05-01T09:19:37.155Z,53.5
2018-05-01T09:20:38.780Z,54.0
2018-05-01T09:21:40.408Z,54.2
2018-05-01T09:22:42.031Z,55.2
2018-05-01T09:23:43.659Z,56.4
2018-05-01T09:24:45.286Z,54.2
2018-05-01T09:25:46.916Z,54.5
2018-05-01T09:26:48.577Z,53.2
2018-05-01T09:27:50.171Z,53.6
2018-05-01T09:28:51.804Z,53.1
2018-05-01T09:29:53.481Z,52.1
2018-05-01T09:30:55.112Z,52.3
2018-05-01T09:31:56.733Z,53.1
2018-05-01T09:32:58.366Z,53.3
2018-05-01T09:33:59.988Z,53.0
2018-05-01T09:35:01.623Z,53.7
2018-05-01T09:36:03.252Z,54.9
2018-05-01T09:37:04.877Z,53.8
2018-05-01T09:38:06.502Z,55.1
2018-05-01T09:39:08.127Z,53.5
2018-05-01T09:40:09.903Z,53.0
2018-05-01T09:41:11.520Z,54.1
2018-05-01T09:42:13.149Z,55.4
2018-05-01T09:43:14.775Z,53.8
2018-05-01T09:44:16.402Z,53.7
2018-05-01T09:45:18.035Z,53.7
2018-05-01T09:46:19.658Z,54.4
2018-05-01T09:47:21.279Z,55.2
2018-05-01T09:48:22.907Z,56.4
2018-05-01T09:49:24.552Z,55.1
2018-05-01T09:50:26.203Z,54.7
2018-05-01T09:51:27.832Z,54.3
2018-05-01T09:52:29.479Z,54.2
2018-05-01T09:53:31.109Z,54.2
2018-05-01T09:54:32.739Z,53.7
2018-05-01T09:55:34.456Z,53.4
2018-05-01T09:56:36.241Z,52.5
2018-05-01T09:57:37.943Z,52.7
2018-05-01T09:58:39.496Z,53.8
2018-05-01T09:59:41.141Z,55.2
2018-05-01T10:00:42.814Z,54.3
2018-05-01T10:01:44.457Z,53.7
2018-05-01T10:02:46.109Z,52.6
2018-05-01T10:03:47.717Z,51.9
2018-05-01T10:04:49.346Z,52.6
2018-05-01T10:05:50.969Z,52.6
2018-05-01T10:06:52.592Z,53.9
2018-05-01T10:07:54.222Z,53.4
2018-05-01T10:08:55.854Z,51.4
2018-05-01T10:09:57.524Z,50.5
2018-05-01T10:10:59.122Z,50.5
2018-05-01T10:12:00.757Z,51.9
2018-05-01T10:13:02.381Z,53.0
2018-05-01T10:14:04.003Z,52.8
2018-05-01T10:15:05.633Z,52.1
2018-05-01T10:16:07.255Z,52.5
2018-05-01T10:17:08.886Z,53.2
2018-05-01T10:18:10.510Z,53.8
2018-05-01T10:19:12.374Z,53.9
2018-05-01T10:20:13.959Z,54.3
2018-05-01T10:21:15.585Z,54.4
2018-05-01T10:22:17.234Z,54.9
2018-05-01T10:23:18.856Z,55.3
2018-05-01T10:24:20.489Z,55.5
2018-05-01T10:25:22.116Z,54.8
2018-05-01T10:26:23.740Z,55.1
2018-05-01T10:27:25.363Z,56.7
2018-05-01T10:28:26.993Z,56.3
2018-05-01T10:29:28.613Z,57.0
2018-05-01T10:30:30.239Z,57.3
2018-05-01T10:31:31.863Z,57.9
2018-05-01T10:32:33.494Z,57.5
2018-05-01T10:33:35.149Z,57.3
2018-05-01T10:34:36.776Z,58.3
2018-05-01T10:35:38.401Z,59.2
2018-05-01T10:36:40.025Z,60.0
2018-05-01T10:37:41.651Z,58.4
2018-05-01T10:38:43.294Z,58.1
2018-05-01T10:39:44.931Z,57.5
2018-05-01T10:40:46.550Z,56.9
2018-05-01T10:41:48.184Z,56.2
2018-05-01T10:42:49.819Z,56.3
2018-05-01T10:43:51.442Z,56.7
2018-05-01T10:44:53.088Z,57.9
2018-05-01T10:45:54.690Z,58.3
2018-05-01T10:46:56.311Z,57.0
2018-05-01T10:47:57.945Z,56.1
2018-05-01T10:48:59.579Z,56.1
2018-05-01T10:50:01.198Z,56.6
2018-05-01T10:51:02.818Z,57.3
2018-05-01T10:52:04.467Z,56.9
2018-05-01T10:53:06.090Z,57.8
2018-05-01T10:54:07.721Z,57.0
2018-05-01T10:55:09.343Z,57.7
2018-05-01T10:56:10.967Z,57.3
2018-05-01T10:57:12.586Z,57.1
2018-05-01T10:58:14.325Z,56.9
2018-05-01T10:59:15.816Z,57.7
2018-05-01T11:00:17.440Z,57.8
2018-05-01T11:01:19.071Z,56.9
2018-05-01T11:02:20.756Z,56.7
2018-05-01T11:03:22.380Z,57.7
2018-05-01T11:04:24.002Z,57.6
2018-05-01T11:05:25.641Z,57.0
2018-05-01T11:06:27.262Z,56.8
2018-05-01T11:07:28.886Z,57.2
2018-05-01T11:08:30.599Z,57.5
2018-05-01T11:09:32.145Z,58.8
2018-05-01T11:10:33.777Z,58.3
2018-05-01T11:11:35.396Z,58.0
2018-05-01T11:12:37.027Z,57.0
2018-05-01T11:13:38.647Z,57.3
2018-05-01T11:14:40.273Z,57.3
2018-05-01T11:15:41.899Z,57.1
2018-05-01T11:16:43.524Z,56.3
2018-05-01T11:17:45.908Z,56.2
2018-05-01T11:18:47.310Z,56.0
2018-05-01T11:19:48.938Z,56.5
2018-05-01T11:20:50.563Z,56.6
2018-05-01T11:21:52.189Z,56.1
2018-05-01T11:22:53.821Z,56.6
2018-05-01T11:23:55.590Z,57.3
2018-05-01T11:24:57.197Z,57.4
2018-05-01T11:25:58.856Z,57.1
2018-05-01T11:27:00.449Z,57.8
2018-05-01T11:28:02.074Z,56.9
2018-05-01T11:29:04.140Z,56.8
2018-05-01T11:30:10.772Z,56.3
2018-05-01T11:31:12.402Z,56.8
2018-05-01T11:32:14.840Z,56.6
2018-05-01T11:33:17.717Z,56.4
2018-05-01T11:34:19.347Z,57.7
2018-05-01T11:35:20.975Z,56.8
2018-05-01T11:36:22.599Z,56.1
2018-05-01T11:37:24.225Z,56.4
2018-05-01T11:38:25.862Z,57.1
2018-05-01T11:39:27.483Z,56.9
2018-05-01T11:40:29.106Z,56.4
2018-05-01T11:41:30.730Z,55.6
2018-05-01T11:42:32.358Z,55.4
2018-05-01T11:43:33.987Z,55.7
2018-05-01T11:44:35.611Z,56.3
2018-05-01T11:45:37.237Z,56.3
2018-05-01T11:46:38.866Z,56.7
2018-05-01T11:47:40.492Z,56.2
2018-05-01T11:48:42.114Z,56.2
2018-05-01T11:49:43.736Z,55.9
2018-05-01T11:50:45.365Z,55.8
2018-05-01T11:51:46.987Z,56.7
2018-05-01T11:52:48.616Z,56.7
2018-05-01T11:53:50.489Z,55.3
2018-05-01T11:54:51.998Z,55.3
2018-05-01T11:55:53.629Z,55.0
2018-05-01T11:56:55.252Z,55.1
2018-05-01T11:57:56.875Z,53.1
2018-05-01T11:58:58.544Z,52.6
2018-05-01T12:00:00.176Z,51.8
2018-05-01T12:01:01.813Z,51.8
2018-05-01T12:02:03.439Z,51.4
2018-05-01T12:03:05.066Z,51.1
2018-05-01T12:04:06.698Z,51.3
2018-05-01T12:05:08.322Z,51.2
2018-05-01T12:06:09.948Z,51.2
2018-05-01T12:07:11.581Z,50.3
2018-05-01T12:08:13.211Z,50.1
2018-05-01T12:09:14.833Z,50.3
2018-05-01T12:10:16.461Z,49.9
2018-05-01T12:11:18.093Z,50.2
2018-05-01T12:12:19.716Z,50.0
2018-05-01T12:13:21.353Z,50.2
2018-05-01T12:14:22.981Z,51.0
2018-05-01T12:15:24.613Z,50.5
2018-05-01T12:16:26.239Z,50.2
2018-05-01T12:17:27.873Z,50.5
2018-05-01T12:18:29.583Z,49.6
2018-05-01T12:19:31.134Z,50.1
2018-05-01T12:20:32.755Z,50.0
2018-05-01T12:21:34.388Z,48.0
2018-05-01T12:22:36.016Z,48.2
2018-05-01T12:23:37.717Z,47.4
2018-05-01T12:24:39.270Z,48.2
2018-05-01T12:25:40.905Z,48.4
2018-05-01T12:26:42.532Z,49.0
2018-05-01T12:27:44.168Z,47.1
2018-05-01T12:28:45.803Z,47.6
2018-05-01T12:29:47.431Z,47.1
2018-05-01T12:30:49.060Z,47.3
2018-05-01T12:31:50.684Z,47.0
2018-05-01T12:32:52.310Z,46.6
2018-05-01T12:33:53.945Z,46.1
2018-05-01T12:34:55.576Z,46.7
2018-05-01T12:35:57.219Z,47.5
2018-05-01T12:36:58.895Z,46.8
2018-05-01T12:38:00.473Z,47.4
2018-05-01T12:39:02.114Z,47.6
2018-05-01T12:40:03.745Z,46.8
2018-05-01T12:41:05.377Z,47.4
2018-05-01T12:42:07.009Z,47.6
2018-05-01T12:43:08.642Z,46.0
2018-05-01T12:44:10.285Z,45.8
2018-05-01T12:45:11.913Z,45.1
2018-05-01T12:46:13.545Z,44.2
2018-05-01T12:47:16.251Z,43.0
2018-05-01T12:48:17.911Z,44.8
2018-05-01T12:49:19.514Z,45.4
2018-05-01T12:50:21.146Z,43.4
2018-05-01T12:51:22.770Z,42.3
2018-05-01T12:52:24.405Z,42.5
2018-05-01T12:53:26.036Z,41.9
2018-05-01T12:54:27.661Z,41.9
2018-05-01T12:55:29.369Z,42.4
2018-05-01T12:56:30.929Z,43.2
2018-05-01T12:57:32.561Z,43.0
2018-05-01T12:58:34.191Z,42.0
2018-05-01T12:59:35.827Z,42.4
2018-05-01T13:00:37.448Z,43.1
2018-05-01T13:01:39.083Z,44.5
2018-05-01T13:02:40.771Z,44.0
2018-05-01T13:03:42.393Z,44.7
2018-05-01T13:04:44.019Z,45.7
2018-05-01T13:05:45.652Z,45.4
2018-05-01T13:06:47.324Z,45.0
2018-05-01T13:07:48.937Z,43.1
2018-05-01T13:08:50.565Z,42.8
2018-05-01T13:09:52.191Z,43.4
2018-05-01T13:10:53.872Z,43.1
2018-05-01T13:11:55.499Z,42.9
2018-05-01T13:12:57.128Z,41.9
2018-05-01T13:13:58.758Z,40.0
2018-05-01T13:15:00.395Z,37.9
2018-05-01T13:16:02.064Z,37.1
2018-05-01T13:17:03.693Z,37.0
2018-05-01T13:18:05.321Z,37.4
2018-05-01T13:19:06.958Z,35.5
2018-05-01T13:20:08.583Z,35.8
2018-05-01T13:21:10.218Z,34.6
2018-05-01T13:22:11.847Z,33.6
2018-05-01T13:23:13.482Z,32.1
2018-05-01T13:24:15.117Z,32.1
2018-05-01T13:25:16.745Z,32.1
2018-05-01T13:26:18.378Z,32.5
2018-05-01T13:27:20.087Z,33.7